PTCMS SBPS-SBMO
Flight info
| Callsign | PTCMS |
|---|---|
| Flight time | 1h 17m |
| Altitude | FL370 |
| Route | NEMO1B NEMOG DAKEN UZ73 TEMEV UZ23 ANDIG |
| Aircraft | A320/M-SDE3FGHIRWY/LB1 |
Departure
| Time | 2026-05-08 02:31 |
|---|---|
| Airport | Porto Seguro International Airport (SBPS) |
Arrival
| Time | 2026-05-08 03:48 |
|---|---|
| Airport | Zumbi dos Palmares International Airport (SBMO) |
| Time | Latitude | Longitude | Altitude | Speed | Heading |
|---|---|---|---|---|---|
| 2026-05-08 02:16 | -16.44059 | -39.08095 | 160 ft | 0 kts | 165° |
| 2026-05-08 02:23 | -16.44055 | -39.08097 | 160 ft | 2 kts | 164° |
| 2026-05-08 02:23 | -16.44042 | -39.08100 | 160 ft | 2 kts | 139° |
| 2026-05-08 02:23 | -16.44036 | -39.08111 | 160 ft | 2 kts | 65° |
| 2026-05-08 02:24 | -16.44041 | -39.08120 | 160 ft | 0 kts | 52° |
| 2026-05-08 02:26 | -16.44018 | -39.08112 | 160 ft | 5 kts | 8° |
| 2026-05-08 02:26 | -16.43969 | -39.08121 | 160 ft | 7 kts | 345° |
| 2026-05-08 02:26 | -16.43920 | -39.08137 | 160 ft | 10 kts | 343° |
| 2026-05-08 02:27 | -16.43854 | -39.08094 | 160 ft | 16 kts | 70° |
| 2026-05-08 02:27 | -16.43815 | -39.07960 | 160 ft | 23 kts | 74° |
| 2026-05-08 02:27 | -16.43771 | -39.07789 | 162 ft | 25 kts | 76° |
| 2026-05-08 02:27 | -16.43727 | -39.07619 | 162 ft | 22 kts | 73° |
| 2026-05-08 02:28 | -16.43682 | -39.07467 | 163 ft | 23 kts | 72° |
| 2026-05-08 02:28 | -16.43646 | -39.07325 | 162 ft | 15 kts | 77° |
| 2026-05-08 02:28 | -16.43649 | -39.07228 | 160 ft | 13 kts | 95° |
| 2026-05-08 02:28 | -16.43619 | -39.07229 | 160 ft | 8 kts | 258° |
| 2026-05-08 02:29 | -16.43626 | -39.07252 | 161 ft | 0 kts | 253° |
| 2026-05-08 02:30 | -16.43628 | -39.07257 | 161 ft | 5 kts | 254° |
| 2026-05-08 02:30 | -16.43701 | -39.07526 | 163 ft | 83 kts | 255° |
| 2026-05-08 02:31 | -16.43936 | -39.08387 | 173 ft | 158 kts | 254° |
| 2026-05-08 02:31 | -16.44252 | -39.09531 | 812 ft | 172 kts | 254° |
| 2026-05-08 02:31 | -16.44577 | -39.10796 | 1524 ft | 191 kts | 256° |
| 2026-05-08 02:31 | -16.44674 | -39.12205 | 2165 ft | 204 kts | 287° |
| 2026-05-08 02:32 | -16.43824 | -39.13417 | 2717 ft | 220 kts | 323° |
| 2026-05-08 02:32 | -16.42322 | -39.13968 | 3350 ft | 242 kts | 356° |
| 2026-05-08 02:32 | -16.40584 | -39.13887 | 3928 ft | 260 kts | 0° |
| 2026-05-08 02:32 | -16.38706 | -39.13916 | 4578 ft | 280 kts | 351° |
| 2026-05-08 02:33 | -16.36779 | -39.14282 | 5521 ft | 278 kts | 346° |
| 2026-05-08 02:33 | -16.34924 | -39.14708 | 6673 ft | 272 kts | 345° |
| 2026-05-08 02:33 | -16.33070 | -39.15122 | 7552 ft | 275 kts | 346° |
| 2026-05-08 02:33 | -16.31181 | -39.15507 | 8386 ft | 279 kts | 347° |
| 2026-05-08 02:34 | -16.29265 | -39.15861 | 9204 ft | 282 kts | 348° |
| 2026-05-08 02:34 | -16.27322 | -39.16194 | 10000 ft | 286 kts | 348° |
| 2026-05-08 02:34 | -16.25304 | -39.16526 | 10501 ft | 302 kts | 348° |
| 2026-05-08 02:34 | -16.23168 | -39.16871 | 10928 ft | 319 kts | 349° |
| 2026-05-08 02:35 | -16.20941 | -39.17226 | 11485 ft | 330 kts | 349° |
| 2026-05-08 02:35 | -16.18655 | -39.17583 | 12237 ft | 334 kts | 349° |
| 2026-05-08 02:35 | -16.16343 | -39.17942 | 12985 ft | 338 kts | 349° |
| 2026-05-08 02:35 | -16.14018 | -39.18305 | 13687 ft | 341 kts | 349° |
| 2026-05-08 02:36 | -16.11660 | -39.18677 | 14386 ft | 345 kts | 349° |
| 2026-05-08 02:36 | -16.09285 | -39.19051 | 15057 ft | 348 kts | 348° |
| 2026-05-08 02:36 | -16.06879 | -39.19432 | 15710 ft | 352 kts | 348° |
| 2026-05-08 02:36 | -16.04452 | -39.19816 | 16363 ft | 355 kts | 348° |
| 2026-05-08 02:37 | -16.02006 | -39.20205 | 16997 ft | 358 kts | 348° |
| 2026-05-08 02:37 | -15.99534 | -39.20599 | 17598 ft | 362 kts | 348° |
| 2026-05-08 02:37 | -15.97038 | -39.20993 | 18200 ft | 365 kts | 348° |
| 2026-05-08 02:37 | -15.94520 | -39.21387 | 18783 ft | 368 kts | 348° |
| 2026-05-08 02:38 | -15.91981 | -39.21782 | 19356 ft | 372 kts | 348° |
| 2026-05-08 02:38 | -15.89416 | -39.22184 | 19915 ft | 375 kts | 348° |
| 2026-05-08 02:38 | -15.86831 | -39.22593 | 20467 ft | 378 kts | 348° |
| 2026-05-08 02:38 | -15.84228 | -39.23005 | 21009 ft | 381 kts | 348° |
| 2026-05-08 02:39 | -15.81604 | -39.23420 | 21545 ft | 384 kts | 348° |
| 2026-05-08 02:39 | -15.78943 | -39.23741 | 22073 ft | 389 kts | 355° |
| 2026-05-08 02:39 | -15.76225 | -39.23567 | 22594 ft | 396 kts | 7° |
| 2026-05-08 02:39 | -15.73548 | -39.22831 | 23090 ft | 403 kts | 18° |
| 2026-05-08 02:40 | -15.71004 | -39.21572 | 23568 ft | 408 kts | 25° |
| 2026-05-08 02:40 | -15.68483 | -39.20196 | 24021 ft | 412 kts | 25° |
| 2026-05-08 02:40 | -15.65948 | -39.18820 | 24462 ft | 415 kts | 25° |
| 2026-05-08 02:40 | -15.63380 | -39.17435 | 24901 ft | 417 kts | 25° |
| 2026-05-08 02:41 | -15.60797 | -39.16050 | 25324 ft | 420 kts | 25° |
| 2026-05-08 02:41 | -15.58200 | -39.14659 | 25725 ft | 423 kts | 25° |
| 2026-05-08 02:41 | -15.55587 | -39.13258 | 26117 ft | 426 kts | 25° |
| 2026-05-08 02:41 | -15.52955 | -39.11846 | 26498 ft | 428 kts | 25° |
| 2026-05-08 02:42 | -15.50303 | -39.10425 | 26870 ft | 431 kts | 25° |
| 2026-05-08 02:42 | -15.47642 | -39.08997 | 27230 ft | 433 kts | 25° |
| 2026-05-08 02:42 | -15.44962 | -39.07556 | 27582 ft | 436 kts | 25° |
| 2026-05-08 02:42 | -15.42274 | -39.06111 | 27936 ft | 438 kts | 25° |
| 2026-05-08 02:43 | -15.39567 | -39.04654 | 28261 ft | 440 kts | 25° |
| 2026-05-08 02:43 | -15.36849 | -39.03191 | 28583 ft | 442 kts | 25° |
| 2026-05-08 02:43 | -15.34115 | -39.01721 | 28897 ft | 445 kts | 25° |
| 2026-05-08 02:43 | -15.31364 | -39.00248 | 29201 ft | 447 kts | 25° |
| 2026-05-08 02:44 | -15.28601 | -38.98770 | 29504 ft | 449 kts | 25° |
| 2026-05-08 02:44 | -15.25829 | -38.97288 | 29790 ft | 451 kts | 25° |
| 2026-05-08 02:44 | -15.23039 | -38.95796 | 30069 ft | 453 kts | 25° |
| 2026-05-08 02:44 | -15.20239 | -38.94296 | 30338 ft | 455 kts | 25° |
| 2026-05-08 02:45 | -15.17416 | -38.92831 | 30593 ft | 455 kts | 20° |
| 2026-05-08 02:45 | -15.14449 | -38.91716 | 30853 ft | 454 kts | 14° |
| 2026-05-08 02:45 | -15.11432 | -38.90736 | 31089 ft | 456 kts | 14° |
| 2026-05-08 02:45 | -15.08402 | -38.89759 | 31326 ft | 458 kts | 14° |
| 2026-05-08 02:46 | -15.05367 | -38.88779 | 31643 ft | 457 kts | 14° |
| 2026-05-08 02:46 | -15.02346 | -38.87799 | 31979 ft | 456 kts | 14° |
| 2026-05-08 02:46 | -14.99321 | -38.86819 | 32302 ft | 455 kts | 14° |
| 2026-05-08 02:46 | -14.96312 | -38.85841 | 32613 ft | 455 kts | 14° |
| 2026-05-08 02:47 | -14.93302 | -38.84858 | 32920 ft | 454 kts | 14° |
| 2026-05-08 02:47 | -14.90292 | -38.83880 | 33224 ft | 454 kts | 14° |
| 2026-05-08 02:47 | -14.87292 | -38.82903 | 33526 ft | 453 kts | 14° |
| 2026-05-08 02:47 | -14.84292 | -38.81930 | 33829 ft | 453 kts | 14° |
| 2026-05-08 02:48 | -14.81292 | -38.80958 | 34130 ft | 452 kts | 14° |
| 2026-05-08 02:48 | -14.78302 | -38.79989 | 34419 ft | 451 kts | 14° |
| 2026-05-08 02:48 | -14.75315 | -38.79021 | 34694 ft | 451 kts | 14° |
| 2026-05-08 02:48 | -14.72330 | -38.78055 | 34817 ft | 451 kts | 14° |
| 2026-05-08 02:49 | -14.66361 | -38.76130 | 34838 ft | 450 kts | 14° |
| 2026-05-08 02:49 | -14.60404 | -38.74200 | 34837 ft | 450 kts | 14° |
| 2026-05-08 02:50 | -14.54431 | -38.72269 | 34838 ft | 450 kts | 14° |
| 2026-05-08 02:50 | -14.48471 | -38.70340 | 34838 ft | 450 kts | 14° |
| 2026-05-08 02:51 | -14.42509 | -38.68406 | 34838 ft | 450 kts | 14° |
| 2026-05-08 02:51 | -14.36550 | -38.66476 | 34838 ft | 450 kts | 14° |
| 2026-05-08 02:52 | -14.30586 | -38.64556 | 34838 ft | 450 kts | 14° |
| 2026-05-08 02:52 | -14.24622 | -38.62629 | 34838 ft | 450 kts | 14° |
| 2026-05-08 02:53 | -14.18661 | -38.60703 | 34838 ft | 450 kts | 14° |
| 2026-05-08 02:53 | -14.12701 | -38.58775 | 34838 ft | 450 kts | 14° |
| 2026-05-08 02:54 | -14.06743 | -38.56855 | 34838 ft | 450 kts | 14° |
| 2026-05-08 02:54 | -14.00777 | -38.54939 | 34838 ft | 450 kts | 14° |
| 2026-05-08 02:55 | -13.91836 | -38.52054 | 34838 ft | 450 kts | 14° |
| 2026-05-08 02:56 | -13.85855 | -38.50206 | 34838 ft | 449 kts | 12° |
| 2026-05-08 02:56 | -13.79828 | -38.48600 | 34838 ft | 448 kts | 11° |
| 2026-05-08 02:57 | -13.73781 | -38.47049 | 34838 ft | 448 kts | 11° |
| 2026-05-08 02:57 | -13.67752 | -38.45454 | 34838 ft | 449 kts | 11° |
| 2026-05-08 02:58 | -13.61728 | -38.43820 | 34838 ft | 449 kts | 11° |
| 2026-05-08 02:58 | -13.55700 | -38.42186 | 34838 ft | 449 kts | 11° |
| 2026-05-08 02:59 | -13.49670 | -38.40559 | 34838 ft | 449 kts | 11° |
| 2026-05-08 02:59 | -13.43646 | -38.38939 | 34838 ft | 449 kts | 11° |
| 2026-05-08 03:00 | -13.37621 | -38.37321 | 34838 ft | 449 kts | 11° |
| 2026-05-08 03:00 | -13.31595 | -38.35704 | 34838 ft | 449 kts | 11° |
| 2026-05-08 03:01 | -13.25702 | -38.34122 | 34838 ft | 449 kts | 11° |
| 2026-05-08 03:01 | -13.19673 | -38.32502 | 34837 ft | 449 kts | 11° |
| 2026-05-08 03:02 | -13.13644 | -38.30881 | 34838 ft | 449 kts | 11° |
| 2026-05-08 03:02 | -13.07625 | -38.29266 | 34837 ft | 449 kts | 11° |
| 2026-05-08 03:03 | -13.01594 | -38.27648 | 34838 ft | 449 kts | 11° |
| 2026-05-08 03:03 | -12.95568 | -38.26034 | 34838 ft | 449 kts | 11° |
| 2026-05-08 03:04 | -12.89539 | -38.24427 | 34838 ft | 448 kts | 11° |
| 2026-05-08 03:04 | -12.83513 | -38.22820 | 34838 ft | 449 kts | 11° |
| 2026-05-08 03:05 | -12.77488 | -38.21202 | 34838 ft | 448 kts | 11° |
| 2026-05-08 03:05 | -12.71460 | -38.19585 | 34838 ft | 448 kts | 11° |
| 2026-05-08 03:06 | -12.65431 | -38.17977 | 34839 ft | 449 kts | 11° |
| 2026-05-08 03:06 | -12.59407 | -38.16372 | 34838 ft | 448 kts | 11° |
| 2026-05-08 03:07 | -12.53381 | -38.14764 | 34838 ft | 448 kts | 11° |
| 2026-05-08 03:07 | -12.47355 | -38.13153 | 34838 ft | 448 kts | 11° |
| 2026-05-08 03:08 | -12.41329 | -38.11547 | 34838 ft | 448 kts | 11° |
| 2026-05-08 03:08 | -12.35301 | -38.09939 | 34838 ft | 449 kts | 11° |
| 2026-05-08 03:09 | -12.29315 | -38.08160 | 34837 ft | 452 kts | 20° |
| 2026-05-08 03:09 | -12.23914 | -38.04857 | 34839 ft | 457 kts | 33° |
| 2026-05-08 03:10 | -12.18756 | -38.01076 | 34838 ft | 457 kts | 33° |
| 2026-05-08 03:10 | -12.13588 | -37.97319 | 34838 ft | 457 kts | 33° |
| 2026-05-08 03:11 | -12.08423 | -37.93561 | 34837 ft | 457 kts | 33° |
| 2026-05-08 03:11 | -12.03258 | -37.89792 | 34838 ft | 457 kts | 33° |
| 2026-05-08 03:12 | -11.98102 | -37.86035 | 34837 ft | 457 kts | 33° |
| 2026-05-08 03:12 | -11.92933 | -37.82274 | 34837 ft | 457 kts | 33° |
| 2026-05-08 03:13 | -11.87768 | -37.78513 | 34839 ft | 457 kts | 33° |
| 2026-05-08 03:13 | -11.82602 | -37.74763 | 34838 ft | 457 kts | 33° |
| 2026-05-08 03:14 | -11.77429 | -37.71021 | 34838 ft | 457 kts | 33° |
| 2026-05-08 03:14 | -11.72260 | -37.67276 | 34838 ft | 457 kts | 33° |
| 2026-05-08 03:15 | -11.67090 | -37.63525 | 34838 ft | 457 kts | 33° |
| 2026-05-08 03:15 | -11.61924 | -37.59782 | 34838 ft | 457 kts | 33° |
| 2026-05-08 03:16 | -11.56745 | -37.56049 | 34838 ft | 457 kts | 33° |
| 2026-05-08 03:16 | -11.51575 | -37.52313 | 34838 ft | 457 kts | 33° |
| 2026-05-08 03:17 | -11.46406 | -37.48569 | 34839 ft | 457 kts | 33° |
| 2026-05-08 03:17 | -11.41239 | -37.44833 | 34838 ft | 457 kts | 33° |
| 2026-05-08 03:18 | -11.36056 | -37.41098 | 34837 ft | 457 kts | 33° |
| 2026-05-08 03:18 | -11.30889 | -37.37368 | 34838 ft | 457 kts | 33° |
| 2026-05-08 03:19 | -11.25724 | -37.33640 | 34837 ft | 457 kts | 33° |
| 2026-05-08 03:19 | -11.20553 | -37.29913 | 34838 ft | 456 kts | 33° |
| 2026-05-08 03:20 | -11.15378 | -37.26187 | 34837 ft | 457 kts | 33° |
| 2026-05-08 03:20 | -11.10203 | -37.22458 | 34838 ft | 457 kts | 33° |
| 2026-05-08 03:21 | -11.05052 | -37.18750 | 34678 ft | 449 kts | 33° |
| 2026-05-08 03:21 | -11.02532 | -37.16934 | 34341 ft | 441 kts | 33° |
| 2026-05-08 03:21 | -11.00046 | -37.15142 | 33914 ft | 437 kts | 33° |
| 2026-05-08 03:21 | -10.97581 | -37.13367 | 33455 ft | 433 kts | 32° |
| 2026-05-08 03:22 | -10.95127 | -37.11609 | 32978 ft | 430 kts | 32° |
| 2026-05-08 03:22 | -10.92691 | -37.09871 | 32528 ft | 427 kts | 32° |
| 2026-05-08 03:22 | -10.90279 | -37.08145 | 32072 ft | 424 kts | 32° |
| 2026-05-08 03:22 | -10.87881 | -37.06427 | 31622 ft | 421 kts | 32° |
| 2026-05-08 03:23 | -10.85499 | -37.04720 | 31182 ft | 418 kts | 32° |
| 2026-05-08 03:23 | -10.83138 | -37.03029 | 30743 ft | 415 kts | 32° |
| 2026-05-08 03:23 | -10.80791 | -37.01351 | 30299 ft | 412 kts | 32° |
| 2026-05-08 03:23 | -10.78464 | -36.99687 | 29865 ft | 409 kts | 32° |
| 2026-05-08 03:24 | -10.76153 | -36.98035 | 29435 ft | 406 kts | 32° |
| 2026-05-08 03:24 | -10.73853 | -36.96389 | 29012 ft | 403 kts | 33° |
| 2026-05-08 03:24 | -10.71576 | -36.94757 | 28598 ft | 400 kts | 33° |
| 2026-05-08 03:24 | -10.69310 | -36.93132 | 28183 ft | 398 kts | 33° |
| 2026-05-08 03:25 | -10.67064 | -36.91523 | 27771 ft | 395 kts | 33° |
| 2026-05-08 03:25 | -10.64831 | -36.89925 | 27358 ft | 392 kts | 33° |
| 2026-05-08 03:25 | -10.62613 | -36.88337 | 26946 ft | 389 kts | 33° |
| 2026-05-08 03:25 | -10.60412 | -36.86761 | 26531 ft | 387 kts | 33° |
| 2026-05-08 03:26 | -10.58222 | -36.85193 | 26112 ft | 384 kts | 33° |
| 2026-05-08 03:26 | -10.56045 | -36.83640 | 25690 ft | 381 kts | 32° |
| 2026-05-08 03:26 | -10.53887 | -36.82103 | 25271 ft | 379 kts | 33° |
| 2026-05-08 03:26 | -10.51742 | -36.80574 | 24847 ft | 376 kts | 33° |
| 2026-05-08 03:27 | -10.49611 | -36.79055 | 24436 ft | 374 kts | 33° |
| 2026-05-08 03:27 | -10.47496 | -36.77543 | 24015 ft | 371 kts | 33° |
| 2026-05-08 03:27 | -10.45398 | -36.76045 | 23590 ft | 369 kts | 33° |
| 2026-05-08 03:27 | -10.43308 | -36.74555 | 23183 ft | 366 kts | 33° |
| 2026-05-08 03:28 | -10.41233 | -36.73076 | 22772 ft | 364 kts | 33° |
| 2026-05-08 03:28 | -10.39171 | -36.71604 | 22373 ft | 362 kts | 33° |
| 2026-05-08 03:28 | -10.37126 | -36.70143 | 21990 ft | 359 kts | 33° |
| 2026-05-08 03:28 | -10.35094 | -36.68692 | 21600 ft | 357 kts | 33° |
| 2026-05-08 03:29 | -10.33075 | -36.67249 | 21213 ft | 355 kts | 33° |
| 2026-05-08 03:29 | -10.31069 | -36.65817 | 20828 ft | 352 kts | 33° |
| 2026-05-08 03:29 | -10.29072 | -36.64396 | 20451 ft | 350 kts | 33° |
| 2026-05-08 03:29 | -10.27082 | -36.62983 | 20081 ft | 348 kts | 33° |
| 2026-05-08 03:30 | -10.23147 | -36.60187 | 19346 ft | 344 kts | 33° |
| 2026-05-08 03:30 | -10.19261 | -36.57412 | 18620 ft | 340 kts | 33° |
| 2026-05-08 03:31 | -10.15508 | -36.54556 | 17899 ft | 338 kts | 43° |
| 2026-05-08 03:31 | -10.12619 | -36.50842 | 17204 ft | 335 kts | 53° |
| 2026-05-08 03:32 | -10.11274 | -36.48924 | 16854 ft | 333 kts | 53° |
| 2026-05-08 03:32 | -10.09931 | -36.47021 | 16521 ft | 332 kts | 53° |
| 2026-05-08 03:32 | -10.08592 | -36.45125 | 16177 ft | 330 kts | 53° |
| 2026-05-08 03:32 | -10.07263 | -36.43247 | 15862 ft | 328 kts | 53° |
| 2026-05-08 03:33 | -10.05938 | -36.41375 | 15522 ft | 326 kts | 53° |
| 2026-05-08 03:33 | -10.04620 | -36.39512 | 15200 ft | 325 kts | 53° |
| 2026-05-08 03:33 | -10.03314 | -36.37660 | 14867 ft | 323 kts | 53° |
| 2026-05-08 03:33 | -10.02015 | -36.35813 | 14558 ft | 321 kts | 53° |
| 2026-05-08 03:34 | -10.00724 | -36.33976 | 14258 ft | 320 kts | 53° |
| 2026-05-08 03:34 | -9.99439 | -36.32150 | 13959 ft | 318 kts | 53° |
| 2026-05-08 03:34 | -9.98159 | -36.30333 | 13667 ft | 316 kts | 53° |
| 2026-05-08 03:34 | -9.96887 | -36.28525 | 13353 ft | 315 kts | 53° |
| 2026-05-08 03:35 | -9.95621 | -36.26729 | 13048 ft | 313 kts | 53° |
| 2026-05-08 03:35 | -9.94358 | -36.24937 | 12726 ft | 312 kts | 53° |
| 2026-05-08 03:35 | -9.93103 | -36.23160 | 12417 ft | 310 kts | 53° |
| 2026-05-08 03:35 | -9.91854 | -36.21391 | 12101 ft | 308 kts | 53° |
| 2026-05-08 03:36 | -9.90613 | -36.19632 | 11786 ft | 307 kts | 53° |
| 2026-05-08 03:36 | -9.89376 | -36.17882 | 11461 ft | 305 kts | 53° |
| 2026-05-08 03:36 | -9.88146 | -36.16140 | 11137 ft | 303 kts | 53° |
| 2026-05-08 03:36 | -9.86924 | -36.14412 | 10800 ft | 302 kts | 53° |
| 2026-05-08 03:37 | -9.85706 | -36.12689 | 10483 ft | 300 kts | 53° |
| 2026-05-08 03:37 | -9.84493 | -36.10973 | 10162 ft | 299 kts | 53° |
| 2026-05-08 03:37 | -9.83287 | -36.09265 | 9704 ft | 302 kts | 53° |
| 2026-05-08 03:37 | -9.82045 | -36.07505 | 9031 ft | 312 kts | 53° |
| 2026-05-08 03:38 | -9.80765 | -36.05690 | 8292 ft | 322 kts | 54° |
| 2026-05-08 03:38 | -9.79447 | -36.03823 | 7491 ft | 331 kts | 54° |
| 2026-05-08 03:38 | -9.78087 | -36.01902 | 6633 ft | 340 kts | 54° |
| 2026-05-08 03:38 | -9.76707 | -35.99952 | 5607 ft | 341 kts | 54° |
| 2026-05-08 03:39 | -9.75319 | -35.97989 | 4551 ft | 341 kts | 54° |
| 2026-05-08 03:39 | -9.73988 | -35.96104 | 4117 ft | 317 kts | 54° |
| 2026-05-08 03:39 | -9.72762 | -35.94369 | 3955 ft | 289 kts | 54° |
| 2026-05-08 03:39 | -9.71637 | -35.92796 | 3831 ft | 266 kts | 50° |
| 2026-05-08 03:40 | -9.70257 | -35.91548 | 3835 ft | 267 kts | 30° |
| 2026-05-08 03:40 | -9.68566 | -35.90811 | 3582 ft | 263 kts | 11° |
| 2026-05-08 03:40 | -9.66763 | -35.90690 | 3222 ft | 261 kts | 352° |
| 2026-05-08 03:40 | -9.65038 | -35.91149 | 2847 ft | 255 kts | 333° |
| 2026-05-08 03:41 | -9.63568 | -35.92109 | 2471 ft | 250 kts | 316° |
| 2026-05-08 03:41 | -9.62289 | -35.93232 | 2091 ft | 238 kts | 320° |
| 2026-05-08 03:41 | -9.60990 | -35.94180 | 1855 ft | 222 kts | 325° |
| 2026-05-08 03:41 | -9.59688 | -35.94963 | 1873 ft | 215 kts | 330° |
| 2026-05-08 03:42 | -9.58387 | -35.95610 | 1850 ft | 201 kts | 335° |
| 2026-05-08 03:42 | -9.57100 | -35.96130 | 1832 ft | 192 kts | 339° |
| 2026-05-08 03:42 | -9.55908 | -35.96511 | 1840 ft | 171 kts | 342° |
| 2026-05-08 03:42 | -9.54794 | -35.96790 | 1855 ft | 164 kts | 345° |
| 2026-05-08 03:43 | -9.53673 | -35.96993 | 1859 ft | 165 kts | 349° |
| 2026-05-08 03:43 | -9.52539 | -35.97125 | 1837 ft | 164 kts | 353° |
| 2026-05-08 03:43 | -9.51397 | -35.97189 | 1838 ft | 165 kts | 356° |
| 2026-05-08 03:43 | -9.50265 | -35.97018 | 1839 ft | 167 kts | 18° |
| 2026-05-08 03:44 | -9.49268 | -35.96418 | 1846 ft | 169 kts | 42° |
| 2026-05-08 03:44 | -9.48573 | -35.95469 | 1839 ft | 169 kts | 65° |
| 2026-05-08 03:44 | -9.48301 | -35.94321 | 1864 ft | 169 kts | 89° |
| 2026-05-08 03:44 | -9.48447 | -35.93233 | 1851 ft | 147 kts | 102° |
| 2026-05-08 03:45 | -9.48637 | -35.92208 | 1862 ft | 149 kts | 102° |
| 2026-05-08 03:45 | -9.48828 | -35.91183 | 1850 ft | 149 kts | 102° |
| 2026-05-08 03:45 | -9.49019 | -35.90158 | 1845 ft | 148 kts | 102° |
| 2026-05-08 03:45 | -9.49212 | -35.89130 | 1858 ft | 148 kts | 102° |
| 2026-05-08 03:46 | -9.49405 | -35.88106 | 1818 ft | 148 kts | 102° |
| 2026-05-08 03:46 | -9.49597 | -35.87082 | 1701 ft | 149 kts | 102° |
| 2026-05-08 03:46 | -9.49787 | -35.86067 | 1524 ft | 145 kts | 102° |
| 2026-05-08 03:46 | -9.49976 | -35.85063 | 1348 ft | 145 kts | 102° |
| 2026-05-08 03:47 | -9.50164 | -35.84063 | 1165 ft | 145 kts | 102° |
| 2026-05-08 03:47 | -9.50347 | -35.83065 | 990 ft | 145 kts | 102° |
| 2026-05-08 03:47 | -9.50545 | -35.82066 | 715 ft | 143 kts | 104° |
| 2026-05-08 03:47 | -9.50738 | -35.81088 | 575 ft | 142 kts | 100° |
| 2026-05-08 03:48 | -9.50905 | -35.80110 | 411 ft | 140 kts | 101° |
| 2026-05-08 03:48 | -9.51051 | -35.79360 | 396 ft | 66 kts | 102° |
| 2026-05-08 03:48 | -9.51089 | -35.79188 | 399 ft | 0 kts | 102° |
| 2026-05-08 03:48 | -9.51089 | -35.79187 | 399 ft | 0 kts | 102° |
| 2026-05-08 03:49 | -9.51089 | -35.79179 | 399 ft | 12 kts | 96° |
| 2026-05-08 03:49 | -9.51109 | -35.79058 | 398 ft | 19 kts | 111° |
| 2026-05-08 03:49 | -9.51165 | -35.78936 | 400 ft | 20 kts | 126° |
| 2026-05-08 03:49 | -9.51235 | -35.78852 | 401 ft | 12 kts | 132° |
| 2026-05-08 03:50 | -9.51297 | -35.78834 | 401 ft | 9 kts | 227° |
| 2026-05-08 03:50 | -9.51293 | -35.78914 | 401 ft | 15 kts | 280° |
| 2026-05-08 03:50 | -9.51320 | -35.79010 | 401 ft | 16 kts | 213° |
| 2026-05-08 03:50 | -9.51353 | -35.79108 | 401 ft | 17 kts | 282° |
| 2026-05-08 03:51 | -9.51385 | -35.79158 | 401 ft | 6 kts | 160° |
| 2026-05-08 03:51 | -9.51408 | -35.79168 | 401 ft | 0 kts | 202° |